Time;durP1;ratioP1;P1;durP2;ratioP2;P2;SDS_P1;SDS_P2;PMS_P1;PMS_P2;Temp;Humidity;BMP_temperature;BMP_pressure;BME280_temperature;BME280_humidity;BME280_pressure;Samples;Min_cycle;Max_cycle;Signal;HPM_P1;HPM_P2
2022/07/24 00:00:47;;;;;;;5.37;5.13;;;;;;;;;;5135649;27;20241;-70
2022/07/24 00:03:13;;;;;;;6.00;5.60;;;;;;;17.11;100.00;65988.47;5135308;27;20607;-70
2022/07/24 00:05:40;;;;;;;5.73;5.43;;;;;;;17.09;100.00;65985.69;5135405;27;20208;-70
2022/07/24 00:08:06;;;;;;;4.43;4.43;;;;;;;17.07;100.00;65976.16;5127805;27;20210;-70
2022/07/24 00:10:32;;;;;;;6.37;6.13;;;;;;;;;;5114551;28;20201;-70
2022/07/24 00:12:59;;;;;;;5.50;5.50;;;;;;;;;;5114890;28;20227;-70
2022/07/24 00:15:25;;;;;;;5.50;5.27;;;;;;;17.05;100.00;65982.34;5114224;28;20227;-70
2022/07/24 00:17:52;;;;;;;5.70;5.60;;;;;;;17.04;100.00;65973.38;5114501;28;20186;-70
2022/07/24 00:20:18;;;;;;;5.90;5.60;;;;;;;17.00;100.00;65974.16;5114741;28;20189;-70
2022/07/24 00:22:45;;;;;;;5.20;5.00;;;;;;;;;;5114430;28;20595;-70
2022/07/24 00:25:11;;;;;;;5.63;5.43;;;;;;;16.97;100.00;65965.56;5114504;28;20621;-70
2022/07/24 00:27:37;;;;;;;5.47;5.17;;;;;;;;;;5125162;27;20257;-70
2022/07/24 00:30:05;;;;;;;4.77;4.67;;;;;;;16.91;100.00;65963.56;5134844;27;20730;-70
2022/07/24 00:32:31;;;;;;;4.77;4.70;;;;;;;;;;5121793;27;20242;-72
2022/07/24 00:34:58;;;;;;;5.13;4.93;;;;;;;16.88;100.00;65960.22;5114128;28;20610;-71
2022/07/24 00:37:24;;;;;;;5.23;5.13;;;;;;;16.86;100.00;65958.56;5114132;28;20219;-71
2022/07/24 00:39:51;;;;;;;5.83;5.63;;;;;;;16.86;100.00;65952.75;5114407;28;20255;-71
2022/07/24 00:42:17;;;;;;;4.93;4.93;;;;;;;;;;5114078;28;20199;-71
2022/07/24 00:44:44;;;;;;;5.33;5.23;;;;;;;16.84;100.00;65961.00;5120253;27;20731;-70
2022/07/24 00:47:10;;;;;;;4.90;4.70;;;;;;;16.83;100.00;65957.81;5134521;27;20249;-70
2022/07/24 00:49:37;;;;;;;5.37;4.93;;;;;;;16.82;100.00;65945.66;5116407;27;20191;-70
2022/07/24 00:52:04;;;;;;;5.50;5.40;;;;;;;16.79;100.00;65956.00;5134503;27;20237;-70
2022/07/24 00:54:31;;;;;;;6.23;6.13;;;;;;;16.80;100.00;65951.31;5134412;27;20256;-70
2022/07/24 00:56:57;;;;;;;5.77;5.63;;;;;;;16.80;100.00;65946.06;5131843;27;20188;-70
2022/07/24 00:59:24;;;;;;;5.60;5.50;;;;;;;16.79;100.00;65950.75;5134669;27;20234;-70
2022/07/24 01:01:50;;;;;;;5.80;5.60;;;;;;;;;;5135011;27;20251;-71
2022/07/24 01:04:18;;;;;;;5.57;5.17;;;;;;;16.73;100.00;65944.06;5133927;27;20693;-71
2022/07/24 01:06:47;;;;;;;5.20;5.10;;;;;;;16.68;100.00;65933.78;5134597;27;20611;-70
2022/07/24 01:09:14;;;;;;;6.27;5.97;;;;;;;16.67;100.00;65937.91;5130932;27;20192;-70
2022/07/24 01:11:42;;;;;;;6.20;5.90;;;;;;;16.63;100.00;65938.13;5134275;28;20188;-70
2022/07/24 01:14:11;;;;;;;5.80;5.70;;;;;;;16.56;100.00;65928.25;5134892;28;20249;-70
2022/07/24 01:16:37;;;;;;;5.27;5.27;;;;;;;16.47;100.00;65916.19;5134081;28;20188;-70
2022/07/24 01:19:04;;;;;;;5.20;5.10;;;;;;;;;;5135227;28;20263;-70
2022/07/24 01:21:31;;;;;;;5.60;5.50;;;;;;;16.40;100.00;65913.06;5131915;28;20242;-70
2022/07/24 01:23:58;;;;;;;4.90;4.90;;;;;;;;;;5134499;28;20234;-70
2022/07/24 01:26:24;;;;;;;5.00;5.00;;;;;;;16.36;100.00;65896.06;5134444;27;20735;-70
2022/07/24 01:28:51;;;;;;;5.43;5.40;;;;;;;16.37;100.00;65904.50;5138960;27;20675;-70
2022/07/24 01:31:17;;;;;;;5.30;5.30;;;;;;;;;;5135680;27;20594;-70
2022/07/24 01:33:44;;;;;;;6.00;5.23;;;;;;;16.36;100.00;65903.94;5138641;27;20208;-70
2022/07/24 01:36:10;;;;;;;6.23;6.13;;;;;;;16.35;100.00;65897.56;5138785;27;20647;-70
2022/07/24 01:38:37;;;;;;;5.03;4.93;;;;;;;16.32;100.00;65902.09;5138165;27;20185;-70
2022/07/24 01:41:03;;;;;;;5.27;5.17;;;;;;;;;;5138140;27;20180;-70
2022/07/24 01:43:29;;;;;;;4.87;4.67;;;;;;;16.28;100.00;65897.06;5135880;27;20240;-70
2022/07/24 01:45:56;;;;;;;5.53;5.13;;;;;;;16.26;100.00;65887.53;5137999;27;20200;-70
2022/07/24 01:48:22;;;;;;;5.33;5.23;;;;;;;16.22;100.00;65888.91;5116905;27;20643;-70
2022/07/24 01:50:49;;;;;;;5.27;4.97;;;;;;;16.20;100.00;65880.84;5117328;28;20656;-70
2022/07/24 01:53:15;;;;;;;5.53;5.43;;;;;;;16.18;100.00;65879.19;5117513;28;20234;-70
2022/07/24 01:55:42;;;;;;;5.33;5.17;;;;;;;;;;5116203;28;20779;-70
2022/07/24 01:58:08;;;;;;;6.00;5.90;;;;;;;;;;5117761;28;20597;-70
2022/07/24 02:00:35;;;;;;;5.23;5.20;;;;;;;16.07;100.00;65874.78;5117486;28;20663;-70
2022/07/24 02:03:02;;;;;;;4.80;4.80;;;;;;;16.03;100.00;65861.94;5117154;28;20189;-70
2022/07/24 02:05:28;;;;;;;5.23;5.23;;;;;;;;;;5116957;28;20213;-70
2022/07/24 02:07:58;;;;;;;5.50;5.50;;;;;;;16.00;100.00;65872.22;5131861;27;20246;-70
2022/07/24 02:10:26;;;;;;;5.90;5.70;;;;;;;16.01;100.00;65860.28;5137562;27;20241;-70
2022/07/24 02:12:53;;;;;;;5.47;5.27;;;;;;;16.00;100.00;65859.13;5135432;27;20250;-70
2022/07/24 02:15:19;;;;;;;5.87;5.70;;;;;;;;;;5137397;27;20200;-70
2022/07/24 02:17:50;;;;;;;5.07;4.97;;;;;;;16.01;100.00;65867.56;5137429;27;20590;-70
2022/07/24 02:20:16;;;;;;;5.37;5.27;;;;;;;;;;5135363;27;20188;-70
2022/07/24 02:22:43;;;;;;;5.40;5.30;;;;;;;16.01;100.00;65859.72;5137326;27;20592;-70
2022/07/24 02:25:11;;;;;;;6.47;6.27;;;;;;;16.00;100.00;65863.81;5137148;27;20254;-70
2022/07/24 02:27:38;;;;;;;6.13;5.60;;;;;;;15.99;100.00;65865.88;5137247;27;20205;-70
2022/07/24 02:30:07;;;;;;;5.90;5.80;;;;;;;15.99;100.00;65855.41;5137170;27;20185;-70
2022/07/24 02:32:34;;;;;;;6.43;5.93;;;;;;;15.96;100.00;65884.06;5137410;27;20229;-70
2022/07/24 02:35:00;;;;;;;6.70;6.50;;;;;;;15.95;100.00;65853.59;5137314;27;20204;-70
2022/07/24 02:37:36;;;;;;;7.00;5.53;;;;;;;15.95;100.00;65853.59;5137154;27;20188;-70
2022/07/24 02:40:03;;;;;;;5.50;5.27;;;;;;;15.93;100.00;65861.81;5136986;27;20617;-70
2022/07/24 02:42:29;;;;;;;4.90;4.90;;;;;;;15.92;100.00;65858.63;5137481;27;20233;-70
2022/07/24 02:44:56;;;;;;;6.33;6.00;;;;;;;;;;5134694;27;20212;-70
2022/07/24 02:47:22;;;;;;;6.67;6.53;;;;;;;;;;5136864;27;20181;-70
2022/07/24 02:49:49;;;;;;;5.13;5.13;;;;;;;15.84;100.00;65849.19;5136821;27;20185;-70
2022/07/24 02:52:15;;;;;;;5.10;5.00;;;;;;;;;;5137056;27;20616;-70
2022/07/24 02:54:41;;;;;;;5.07;4.97;;;;;;;15.77;100.00;65841.38;5136611;27;20261;-70
2022/07/24 02:57:08;;;;;;;6.40;6.20;;;;;;;15.75;100.00;65831.88;5125160;27;20189;-70
2022/07/24 02:59:34;;;;;;;5.40;5.30;;;;;;;15.76;100.00;65837.66;5116061;28;20185;-70
2022/07/24 03:02:01;;;;;;;6.53;6.10;;;;;;;;;;5115300;28;20602;-70
2022/07/24 03:04:27;;;;;;;6.33;6.23;;;;;;;15.75;100.00;65831.31;5115932;28;20262;-70
2022/07/24 03:06:54;;;;;;;5.87;5.77;;;;;;;15.75;100.00;65836.53;5115832;28;20690;-70
2022/07/24 03:09:20;;;;;;;6.10;5.67;;;;;;;15.72;100.00;65833.19;5114882;28;20188;-70
2022/07/24 03:11:46;;;;;;;6.23;5.93;;;;;;;15.71;100.00;65832.63;5115825;28;20186;-70
2022/07/24 03:14:13;;;;;;;5.60;5.60;;;;;;;15.71;100.00;65832.09;5115614;28;20258;-70
2022/07/24 03:16:39;;;;;;;5.13;5.13;;;;;;;15.69;100.00;65825.75;5115749;28;20209;-70
2022/07/24 03:19:06;;;;;;;6.57;6.47;;;;;;;;;;5126779;27;20258;-70
2022/07/24 03:21:33;;;;;;;6.27;6.17;;;;;;;;;;5136455;27;20646;-70
2022/07/24 03:24:14;;;;;;;5.97;5.67;;;;;;;15.61;100.00;65816.84;5136381;27;20235;-70
2022/07/24 03:26:40;;;;;;;5.97;5.87;;;;;;;15.60;100.00;65815.69;5135880;27;21199;-70
2022/07/24 03:29:07;;;;;;;5.83;5.83;;;;;;;;;;5136389;27;20176;-70
2022/07/24 03:31:34;;;;;;;7.10;6.47;;;;;;;15.61;100.00;65821.50;5135950;27;20654;-70
2022/07/24 03:34:01;;;;;;;6.07;5.87;;;;;;;15.59;100.00;65821.88;5134015;27;20224;-70
2022/07/24 03:36:27;;;;;;;6.80;6.50;;;;;;;;;;5135904;27;20229;-70
2022/07/24 03:38:54;;;;;;;6.10;6.00;;;;;;;15.59;100.00;65822.44;5135852;27;20180;-70
2022/07/24 03:41:20;;;;;;;6.77;6.67;;;;;;;15.61;100.00;65826.72;5132747;27;20678;-70
2022/07/24 03:43:47;;;;;;;6.30;6.20;;;;;;;15.63;100.00;65824.28;5135690;27;20204;-70
2022/07/24 03:46:13;;;;;;;6.60;6.40;;;;;;;;;;5134706;27;20238;-70
2022/07/24 03:48:39;;;;;;;6.27;6.17;;;;;;;15.54;100.00;65816.88;5135911;27;20602;-70
2022/07/24 03:51:06;;;;;;;7.27;6.77;;;;;;;;;;5131590;27;20611;-70
2022/07/24 03:53:35;;;;;;;6.73;6.30;;;;;;;;;;5135754;27;20626;-70
2022/07/24 03:56:06;;;;;;;7.37;7.17;;;;;;;15.55;100.00;65817.97;5135476;27;20646;-70
2022/07/24 03:58:32;;;;;;;6.90;6.70;;;;;;;;;;5129739;27;20185;-70
2022/07/24 04:01:04;;;;;;;5.60;5.60;;;;;;;;;;5115388;28;20226;-70
2022/07/24 04:03:31;;;;;;;6.93;6.37;;;;;;;15.45;100.00;65806.84;5115004;28;20190;-70
2022/07/24 04:06:00;;;;;;;6.63;6.17;;;;;;;;;;5114991;28;20204;-70
2022/07/24 04:08:26;;;;;;;6.07;5.87;;;;;;;15.45;100.00;65799.00;5118751;27;20193;-70
2022/07/24 04:10:56;;;;;;;5.70;5.60;;;;;;;15.45;100.00;65803.69;5135761;27;20242;-70
2022/07/24 04:13:29;;;;;;;6.43;6.33;;;;;;;15.49;100.00;65808.13;5135683;27;20181;-70
2022/07/24 04:15:56;;;;;;;7.23;6.73;;;;;;;15.48;100.00;65810.19;5135394;27;20173;-70
2022/07/24 04:18:23;;;;;;;6.90;6.57;;;;;;;15.48;100.00;65807.56;5132785;27;20223;-70
2022/07/24 04:20:50;;;;;;;7.50;7.10;;;;;;;15.49;100.00;65808.69;5135358;27;20562;-70
2022/07/24 04:23:16;;;;;;;6.37;5.97;;;;;;;;;;5131455;27;20181;-70
2022/07/24 04:25:45;;;;;;;6.17;6.07;;;;;;;15.49;100.00;65811.28;5114320;28;20215;-70
2022/07/24 04:28:11;;;;;;;6.07;5.97;;;;;;;;;;5114191;28;20193;-70
2022/07/24 04:30:38;;;;;;;6.60;6.30;;;;;;;;;;5114867;28;20186;-70
2022/07/24 04:33:04;;;;;;;5.70;5.50;;;;;;;15.55;100.00;65822.66;5112243;28;20185;-70
2022/07/24 04:35:31;;;;;;;7.30;6.80;;;;;;;15.58;100.00;65821.34;5113937;28;20205;-70
2022/07/24 04:37:57;;;;;;;6.93;6.77;;;;;;;15.61;100.00;65824.69;5114386;28;20234;-70
2022/07/24 04:40:24;;;;;;;6.70;6.40;;;;;;;;;;5113962;28;20250;-72
2022/07/24 04:42:50;;;;;;;7.07;6.70;;;;;;;15.61;100.00;65814.22;5114413;28;20576;-72
2022/07/24 04:45:16;;;;;;;6.87;6.43;;;;;;;;;;5113941;28;20213;-71
2022/07/24 04:47:43;;;;;;;6.43;6.23;;;;;;;;;;5113990;28;20317;-70
2022/07/24 04:50:09;;;;;;;6.17;5.90;;;;;;;15.77;100.00;65831.47;5114013;28;20189;-71
2022/07/24 04:52:36;;;;;;;5.93;5.70;;;;;;;15.85;100.00;65843.00;5113957;28;20197;-71
2022/07/24 04:55:03;;;;;;;6.93;6.43;;;;;;;;;;5114619;27;20204;-70
2022/07/24 04:57:30;;;;;;;6.03;5.93;;;;;;;15.91;100.00;65854.34;5133461;27;20237;-70
2022/07/24 04:59:56;;;;;;;7.10;5.77;;;;;;;;;;5113619;28;20620;-70
2022/07/24 05:02:22;;;;;;;6.87;6.77;;;;;;;;;;5113192;28;20554;-70
2022/07/24 05:04:49;;;;;;;8.33;7.83;;;;;;;16.06;100.00;65870.50;5112469;28;20250;-69
2022/07/24 05:07:15;;;;;;;8.47;7.87;;;;;;;16.12;100.00;65872.50;5114767;28;20261;-70
2022/07/24 05:09:42;;;;;;;6.77;6.67;;;;;;;16.19;100.00;65884.97;5134259;27;20241;-70
2022/07/24 05:12:08;;;;;;;7.17;6.60;;;;;;;;;;5124684;27;20192;-70
2022/07/24 05:14:35;;;;;;;7.37;7.27;;;;;;;;;;5133123;28;20216;-70
2022/07/24 05:17:01;;;;;;;7.43;6.77;;;;;;;16.40;100.00;65910.44;5131795;28;20221;-70
2022/07/24 05:19:28;;;;;;;12.10;6.83;;;;;;;;;;5132420;28;20210;-70
2022/07/24 05:21:54;;;;;;;6.97;6.87;;;;;;;16.60;100.00;65929.56;5134472;28;20253;-70
2022/07/24 05:24:21;;;;;;;8.57;7.87;;;;;;;16.72;100.00;65938.28;5131150;28;20751;-70
2022/07/24 05:26:47;;;;;;;8.00;7.73;;;;;;;16.80;100.00;65946.06;5116033;28;20759;-70
2022/07/24 05:29:16;;;;;;;6.83;6.73;;;;;;;;;;5113874;28;20173;-70
2022/07/24 05:31:42;;;;;;;7.30;7.20;;;;;;;;;;5127745;28;20188;-70
2022/07/24 05:34:09;;;;;;;7.50;7.20;;;;;;;;;;5134120;28;20208;-70
2022/07/24 05:36:36;;;;;;;9.93;7.30;;;;;;;17.19;100.00;66000.03;5134047;28;20245;-70
2022/07/24 05:39:03;;;;;;;6.93;6.60;;;;;;;17.32;100.00;66009.28;5134018;28;20241;-70
2022/07/24 05:41:30;;;;;;;6.33;6.23;;;;;;;;;;5128039;28;20189;-70
2022/07/24 05:43:56;;;;;;;6.60;6.43;;;;;;;;;;5134171;28;20257;-70
2022/07/24 05:46:23;;;;;;;6.20;6.10;;;;;;;17.57;100.00;66036.03;5133875;28;20201;-70
2022/07/24 05:48:50;;;;;;;6.60;6.40;;;;;;;17.66;100.00;66046.06;5134465;28;20184;-70
2022/07/24 05:51:16;;;;;;;7.10;6.77;;;;;;;17.77;100.00;66050.47;5131422;28;20212;-70
2022/07/24 05:53:43;;;;;;;6.80;6.50;;;;;;;;;;5134055;28;20261;-70
2022/07/24 05:56:09;;;;;;;7.13;6.80;;;;;;;;;;5134434;28;20222;-70
2022/07/24 05:58:35;;;;;;;6.43;6.27;;;;;;;18.09;100.00;66027.28;5133808;28;20181;-70
2022/07/24 06:01:02;;;;;;;7.10;6.90;;;;;;;18.22;100.00;66106.91;5118266;28;20193;-70
2022/07/24 06:03:28;;;;;;;6.20;6.00;;;;;;;18.30;100.00;66050.13;5113164;28;20712;-70
2022/07/24 06:05:55;;;;;;;6.27;6.17;;;;;;;18.43;100.00;66130.31;5113388;28;20205;-70
2022/07/24 06:08:21;;;;;;;6.40;6.30;;;;;;;;;;5113200;28;20258;-70
2022/07/24 06:10:48;;;;;;;7.00;6.73;;;;;;;18.64;100.00;66147.94;5112211;28;20186;-70
2022/07/24 06:13:15;;;;;;;8.57;8.37;;;;;;;18.88;100.00;66174.78;5133539;27;20237;-71
2022/07/24 06:15:41;;;;;;;8.27;7.97;;;;;;;;;;5122885;27;20200;-70
2022/07/24 06:18:08;;;;;;;7.53;7.33;;;;;;;19.18;100.00;66207.72;5117166;28;20206;-70
2022/07/24 06:20:34;;;;;;;7.63;7.30;;;;;;;19.32;99.91;66222.22;5128089;27;20203;-71
2022/07/24 06:23:01;;;;;;;7.67;7.47;;;;;;;;;;5137910;27;20188;-71
2022/07/24 06:25:27;;;;;;;8.23;7.43;;;;;;;19.58;97.49;66250.75;5137147;27;20209;-71
2022/07/24 06:27:54;;;;;;;13.87;7.67;;;;;;;;;;5137119;27;20667;-71
2022/07/24 06:30:24;;;;;;;7.20;6.83;;;;;;;19.89;97.51;66290.63;5137230;27;20173;-71
2022/07/24 06:32:52;;;;;;;6.90;6.60;;;;;;;;;;5137504;27;20530;-71
2022/07/24 06:35:19;;;;;;;7.47;7.17;;;;;;;20.06;95.13;66304.34;5134612;27;20208;-71
2022/07/24 06:37:46;;;;;;;7.63;7.23;;;;;;;20.11;95.17;66306.19;5137677;27;20173;-71
2022/07/24 06:40:17;;;;;;;6.83;6.73;;;;;;;20.22;95.92;66321.69;5137014;27;20188;-71
2022/07/24 06:42:44;;;;;;;6.93;6.37;;;;;;;;;;5136993;27;20237;-71
2022/07/24 06:45:11;;;;;;;6.47;5.97;;;;;;;20.47;92.95;66353.81;5136935;27;20315;-71
2022/07/24 06:47:38;;;;;;;6.77;6.67;;;;;;;;;;5136859;27;20193;-71
2022/07/24 06:50:05;;;;;;;7.13;6.93;;;;;;;20.60;91.81;66368.34;5137193;27;20172;-71
2022/07/24 06:52:31;;;;;;;6.00;5.80;;;;;;;;;;5136803;27;20189;-71
2022/07/24 06:54:58;;;;;;;6.80;6.30;;;;;;;20.71;89.92;66374.78;5134769;27;20216;-71
2022/07/24 06:57:25;;;;;;;5.90;5.70;;;;;;;20.78;88.89;66382.63;5137004;27;20587;-71
2022/07/24 06:59:52;;;;;;;5.77;5.67;;;;;;;;;;5136556;27;20586;-71
2022/07/24 07:02:19;;;;;;;5.87;5.77;;;;;;;;;;5136576;27;20184;-71
2022/07/24 07:04:45;;;;;;;5.80;5.57;;;;;;;21.01;86.56;66413.63;5135565;27;20746;-71
2022/07/24 07:07:12;;;;;;;5.57;5.27;;;;;;;21.13;86.63;66419.13;5136398;27;20694;-71
2022/07/24 07:09:38;;;;;;;5.47;5.37;;;;;;;;;;5133676;27;20241;-71
2022/07/24 07:12:05;;;;;;;5.03;4.97;;;;;;;;;;5136416;27;20230;-71
2022/07/24 07:14:31;;;;;;;5.73;5.73;;;;;;;21.40;85.25;66456.16;5136431;27;20238;-71
2022/07/24 07:16:58;;;;;;;5.27;5.07;;;;;;;;;;5136326;27;20173;-71
2022/07/24 07:19:24;;;;;;;5.83;5.63;;;;;;;21.57;82.60;66475.19;5136558;27;20542;-71
2022/07/24 07:21:51;;;;;;;5.77;5.67;;;;;;;21.62;82.91;66474.94;5117117;27;20595;-71
2022/07/24 07:24:17;;;;;;;5.77;5.33;;;;;;;;;;5114557;28;20255;-71
2022/07/24 07:26:43;;;;;;;5.80;5.40;;;;;;;;;;5115318;28;20204;-71
2022/07/24 07:29:10;;;;;;;6.00;5.87;;;;;;;;;;5115813;28;20239;-71
2022/07/24 07:31:37;;;;;;;5.30;5.20;;;;;;;21.97;81.09;66513.56;5115415;28;20654;-71
2022/07/24 07:34:04;;;;;;;6.53;5.13;;;;;;;22.01;80.43;66515.41;5115327;28;20208;-71
2022/07/24 07:36:31;;;;;;;5.40;5.30;;;;;;;22.06;79.64;66528.91;5115370;28;20231;-71
2022/07/24 07:38:57;;;;;;;5.47;5.27;;;;;;;;;;5115330;28;20242;-71
2022/07/24 07:41:24;;;;;;;5.20;5.10;;;;;;;;;;5115777;28;20238;-71
2022/07/24 07:43:51;;;;;;;5.43;5.43;;;;;;;22.42;78.48;66562.81;5115336;28;20619;-72
2022/07/24 07:46:18;;;;;;;5.53;5.33;;;;;;;;;;5113586;28;20702;-71
2022/07/24 07:48:44;;;;;;;5.70;5.60;;;;;;;22.48;78.17;66574.84;5115129;28;20232;-71
2022/07/24 07:51:11;;;;;;;5.40;5.30;;;;;;;;;;5115331;28;20284;-71
2022/07/24 07:53:37;;;;;;;5.97;5.77;;;;;;;22.66;77.41;66589.72;5114910;28;20728;-71
2022/07/24 07:56:05;;;;;;;6.13;5.93;;;;;;;;;;5131303;27;20193;-71
2022/07/24 07:58:31;;;;;;;5.90;5.50;;;;;;;;;;5135431;27;20180;-72
2022/07/24 08:00:57;;;;;;;6.80;6.60;;;;;;;;;;5134213;27;20196;-73
2022/07/24 08:03:24;;;;;;;6.90;6.80;;;;;;;22.85;78.37;66607.78;5135569;27;20230;-72
2022/07/24 08:05:50;;;;;;;6.37;5.97;;;;;;;;;;5135303;27;20184;-72
2022/07/24 08:08:24;;;;;;;7.47;5.97;;;;;;;;;;5131917;27;20198;-71
2022/07/24 08:10:52;;;;;;;6.03;5.83;;;;;;;23.09;76.90;66642.06;5134910;27;20647;-71
2022/07/24 08:13:19;;;;;;;6.80;6.60;;;;;;;23.15;77.61;66642.94;5135075;27;20188;-72
2022/07/24 08:15:45;;;;;;;5.87;5.70;;;;;;;;;;5135072;27;20176;-72
2022/07/24 08:18:12;;;;;;;7.10;6.80;;;;;;;23.27;77.87;66656.38;5135048;27;20172;-72
2022/07/24 08:20:38;;;;;;;6.40;6.20;;;;;;;23.30;77.87;66660.31;5135005;27;20651;-72
2022/07/24 08:23:05;;;;;;;6.53;6.37;;;;;;;;;;5134947;27;20646;-72
2022/07/24 08:25:31;;;;;;;6.93;6.30;;;;;;;23.33;78.24;66663.09;5134916;27;20204;-72
2022/07/24 08:27:57;;;;;;;6.13;6.03;;;;;;;;;;5134894;27;20261;-71
2022/07/24 08:30:25;;;;;;;7.37;6.70;;;;;;;;;;5135126;27;20188;-72
2022/07/24 08:32:52;;;;;;;7.27;6.87;;;;;;;23.40;78.30;66670.94;5132869;27;20189;-71
2022/07/24 08:35:18;;;;;;;8.07;7.47;;;;;;;;;;5134506;27;20249;-72
2022/07/24 08:37:45;;;;;;;8.77;8.32;;;;;;;23.45;77.91;66676.56;5135175;27;20673;-72
2022/07/24 08:40:12;;;;;;;8.70;7.97;;;;;;;;;;5135042;27;20193;-72
2022/07/24 08:42:39;;;;;;;7.27;7.07;;;;;;;23.46;79.22;66677.69;5116266;27;20180;-72
2022/07/24 08:45:06;;;;;;;7.73;7.50;;;;;;;23.67;79.42;66708.06;5122517;27;20261;-72
2022/07/24 08:47:33;;;;;;;9.30;8.20;;;;;;;;;;5113037;28;20346;-72
2022/07/24 08:49:59;;;;;;;8.23;7.70;;;;;;;;;;5113969;28;20635;-71
2022/07/24 08:52:26;;;;;;;8.77;8.23;;;;;;;;;;5112842;28;20201;-71
2022/07/24 08:54:53;;;;;;;7.83;7.47;;;;;;;23.71;78.61;66713.09;5113875;28;20266;-72
2022/07/24 08:57:19;;;;;;;7.78;7.38;;;;;;;;;;5124211;27;20233;-72
2022/07/24 08:59:46;;;;;;;9.50;8.65;;;;;;;23.81;78.07;66630.97;5126851;27;20180;-72
2022/07/24 09:02:13;;;;;;;8.20;7.80;;;;;;;23.87;78.42;66719.88;5126819;27;20248;-72
2022/07/24 09:04:45;;;;;;;7.07;6.88;;;;;;;23.94;77.24;66730.38;5119921;27;20213;-72
2022/07/24 09:07:16;;;;;;;8.23;7.10;;;;;;;;;;5130922;27;20211;-72
2022/07/24 09:09:56;;;;;;;7.18;6.88;;;;;;;24.09;77.46;66744.00;5132233;27;20603;-73
2022/07/24 09:12:23;;;;;;;7.65;7.25;;;;;;;24.04;76.14;66741.03;5127410;27;20249;-72
2022/07/24 09:14:49;;;;;;;8.35;7.72;;;;;;;24.07;77.68;66750.25;5114754;27;20205;-71
2022/07/24 09:17:17;;;;;;;7.25;7.05;;;;;;;;;;5122777;28;20212;-72
2022/07/24 09:19:49;;;;;;;6.85;6.53;;;;;;;24.11;77.95;66749.44;5126602;28;20207;-72
2022/07/24 09:22:34;;;;;;;6.45;6.28;;;;;;;24.36;75.66;66774.28;5124597;28;20658;-73
2022/07/24 09:25:19;;;;;;;7.03;6.53;;;;;;;24.58;75.08;66800.50;5133101;28;20204;-73
2022/07/24 09:27:57;;;;;;;7.47;7.10;;;;;;;24.63;73.73;66803.44;5127661;28;20205;-73
2022/07/24 09:30:31;;;;;;;8.35;7.97;;;;;;;;;;5114163;28;20260;-75
2022/07/24 09:33:03;;;;;;;8.00;7.55;;;;;;;24.57;75.17;66804.66;5113500;28;20193;-74
2022/07/24 09:35:38;;;;;;;7.50;6.97;;;;;;;24.50;75.43;66788.84;5113745;28;20205;-74
2022/07/24 09:38:13;;;;;;;7.38;6.97;;;;;;;24.72;72.82;66813.56;5114039;28;20225;-73
2022/07/24 09:40:40;;;;;;;6.93;6.63;;;;;;;;;;5114086;28;20176;-74
2022/07/24 09:43:15;;;;;;;7.90;7.57;;;;;;;24.88;73.88;66831.50;5113950;28;20237;-73
2022/07/24 09:45:57;;;;;;;6.30;6.10;;;;;;;25.03;73.65;66850.41;5112340;28;20200;-73
2022/07/24 09:48:26;;;;;;;9.57;6.88;;;;;;;;;;5121826;27;20196;-73
2022/07/24 09:50:55;;;;;;;7.30;7.10;;;;;;;25.15;71.50;66868.66;5138188;27;20184;-74
2022/07/24 09:53:25;;;;;;;6.90;6.53;;;;;;;25.17;72.03;66870.91;5137821;27;20188;-73
2022/07/24 09:56:15;;;;;;;14.05;6.93;;;;;;;25.13;71.32;66861.09;5134670;27;20196;-74
2022/07/24 09:58:44;;;;;;;6.00;6.00;;;;;;;;;;5138120;27;20173;-73
2022/07/24 10:01:11;;;;;;;6.68;6.38;;;;;;;;;;5138027;27;20180;-74
2022/07/24 10:03:39;;;;;;;7.03;6.82;;;;;;;;;;5134164;27;20204;-73
2022/07/24 10:06:08;;;;;;;7.63;7.20;;;;;;;25.19;71.16;66867.81;5133404;27;20185;-74
2022/07/24 10:08:35;;;;;;;7.07;6.72;;;;;;;;;;5137485;27;20215;-74
2022/07/24 10:11:02;;;;;;;6.38;6.15;;;;;;;25.40;70.64;66890.84;5136624;27;20257;-73
2022/07/24 10:13:30;;;;;;;6.28;5.90;;;;;;;25.53;68.90;66905.44;5137483;27;20616;-73
2022/07/24 10:16:14;;;;;;;6.50;6.30;;;;;;;;;;5136633;27;20249;-73
2022/07/24 10:18:51;;;;;;;6.00;5.68;;;;;;;25.73;69.96;66927.91;5118976;27;20264;-74
2022/07/24 10:21:24;;;;;;;6.15;6.05;;;;;;;25.82;70.80;66936.88;5112233;28;20723;-74
2022/07/24 10:23:53;;;;;;;6.72;6.40;;;;;;;;;;5125778;27;20217;-74
2022/07/24 10:26:35;;;;;;;7.50;7.30;;;;;;;25.82;70.89;66937.44;5116246;28;20234;-74
2022/07/24 10:29:07;;;;;;;7.63;7.43;;;;;;;;;;5117658;27;20192;-74
2022/07/24 10:31:36;;;;;;;6.30;6.20;;;;;;;25.92;71.48;66948.66;5132927;27;20544;-74
2022/07/24 10:34:04;;;;;;;6.07;5.88;;;;;;;;;;5137043;27;20261;-75
2022/07/24 10:36:39;;;;;;;6.07;5.85;;;;;;;26.02;70.60;66956.69;5125083;27;20181;-74
2022/07/24 10:39:26;;;;;;;6.03;5.85;;;;;;;26.03;68.31;66961.03;5114871;28;20681;-74
2022/07/24 10:42:06;;;;;;;6.13;5.60;;;;;;;;;;5117014;28;20189;-75
2022/07/24 10:44:33;;;;;;;7.85;7.20;;;;;;;25.98;68.38;66954.84;5116356;28;20201;-76
2022/07/24 10:47:01;;;;;;;6.75;6.53;;;;;;;;;;5116273;28;20205;-75
2022/07/24 10:49:38;;;;;;;6.82;6.60;;;;;;;25.96;69.58;66953.16;5116277;28;20190;-75
2022/07/24 10:52:06;;;;;;;6.68;6.50;;;;;;;;;;5116793;28;20539;-75
2022/07/24 10:54:32;;;;;;;6.57;6.38;;;;;;;26.11;68.64;66974.78;5116048;28;20209;-74
2022/07/24 10:56:59;;;;;;;6.32;6.22;;;;;;;;;;5116140;28;20226;-75
2022/07/24 10:59:41;;;;;;;6.80;6.50;;;;;;;26.10;66.89;66968.34;5116026;28;20597;-75
2022/07/24 11:02:26;;;;;;;6.63;6.43;;;;;;;25.99;66.36;66961.28;5116075;28;20191;-74
2022/07/24 11:05:26;;;;;;;6.43;6.32;;;;;;;26.12;68.01;66970.56;5116063;28;20254;-74
2022/07/24 11:08:12;;;;;;;6.47;6.13;;;;;;;26.20;66.40;66976.88;5116466;28;20255;-75
2022/07/24 11:10:53;;;;;;;6.25;5.95;;;;;;;25.98;65.05;66952.75;5116375;28;20165;-75
2022/07/24 11:13:31;;;;;;;5.85;5.68;;;;;;;26.16;66.57;66975.06;5115777;28;20177;-74
2022/07/24 11:16:10;;;;;;;6.32;5.97;;;;;;;;;;5116388;28;20165;-75
2022/07/24 11:18:38;;;;;;;6.22;6.03;;;;;;;26.39;65.80;66999.78;5115730;28;20268;-75
2022/07/24 11:21:09;;;;;;;5.85;5.65;;;;;;;26.57;63.31;67020.56;5115964;28;20256;-75
2022/07/24 11:23:36;;;;;;;5.45;5.28;;;;;;;26.68;63.90;67031.81;5115555;28;20556;-74
2022/07/24 11:26:31;;;;;;;6.68;6.05;;;;;;;26.83;64.17;67048.66;5115565;28;20189;-74
2022/07/24 11:29:18;;;;;;;6.15;6.05;;;;;;;26.81;61.10;67047.00;5115487;28;20250;-75
2022/07/24 11:31:51;;;;;;;5.97;5.78;;;;;;;26.82;61.93;67052.88;5115550;28;20187;-74
2022/07/24 11:34:17;;;;;;;6.18;5.97;;;;;;;26.86;62.29;67052.63;5115655;28;20570;-75
2022/07/24 11:36:47;;;;;;;5.88;5.47;;;;;;;26.89;61.68;67052.75;5115418;28;20300;-74
2022/07/24 11:39:15;;;;;;;5.70;5.60;;;;;;;26.99;60.07;67063.97;5115889;28;20181;-74
2022/07/24 11:41:48;;;;;;;6.53;6.35;;;;;;;;;;5115444;28;20211;-74
2022/07/24 11:44:28;;;;;;;6.18;5.82;;;;;;;27.21;63.25;67090.81;5115753;28;20224;-75
2022/07/24 11:46:59;;;;;;;6.45;6.00;;;;;;;27.05;60.97;67073.41;5115075;28;20696;-75
2022/07/24 11:49:26;;;;;;;6.75;6.18;;;;;;;27.15;62.33;67092.66;5115269;28;20673;-75
2022/07/24 11:51:54;;;;;;;7.40;6.38;;;;;;;;;;5115341;28;20646;-75
2022/07/24 11:54:26;;;;;;;5.72;5.63;;;;;;;27.19;61.21;67093.34;5115315;28;20262;-74
2022/07/24 11:56:53;;;;;;;6.40;5.88;;;;;;;;;;5115209;28;20174;-73
2022/07/24 11:59:32;;;;;;;5.50;5.40;;;;;;;27.24;60.64;67093.66;5114876;28;20246;-75
2022/07/24 12:02:09;;;;;;;5.38;5.38;;;;;;;;;;5115003;28;20236;-75
2022/07/24 12:04:38;;;;;;;5.13;5.13;;;;;;;27.40;61.96;67116.97;5114741;28;20341;-74
2022/07/24 12:07:11;;;;;;;5.65;5.35;;;;;;;27.40;61.81;67111.63;5114672;28;20254;-75
2022/07/24 12:09:45;;;;;;;6.15;5.70;;;;;;;27.46;61.83;67118.38;5114719;28;20234;-75
2022/07/24 12:12:23;;;;;;;5.95;5.65;;;;;;;27.52;58.57;67124.56;5114491;28;20177;-75
2022/07/24 12:15:01;;;;;;;5.95;5.50;;;;;;;27.33;58.51;67109.09;5114522;28;20200;-75
2022/07/24 12:17:29;;;;;;;6.18;5.88;;;;;;;27.51;60.51;67123.44;5114602;28;20174;-75
2022/07/24 12:19:57;;;;;;;4.80;4.70;;;;;;;;;;5115023;28;20193;-74
2022/07/24 12:22:26;;;;;;;4.70;4.70;;;;;;;27.62;58.05;67141.13;5114746;28;20547;-74
2022/07/24 12:24:53;;;;;;;5.05;4.95;;;;;;;;;;5114614;28;20205;-74
2022/07/24 12:27:33;;;;;;;5.18;4.97;;;;;;;;;;5114329;28;20608;-74
2022/07/24 12:29:59;;;;;;;5.03;5.03;;;;;;;;;;5114856;28;20189;-74
2022/07/24 12:32:34;;;;;;;5.60;5.50;;;;;;;;;;5114929;28;20222;-75
2022/07/24 12:35:10;;;;;;;5.68;5.63;;;;;;;;;;5114199;28;20252;-75
2022/07/24 12:37:41;;;;;;;5.75;5.28;;;;;;;27.73;59.69;67145.53;5114496;28;20169;-74